createdAt,value
2018-07-21T00:02:20.500Z,22.12
2018-07-21T00:04:49.063Z,22.11
2018-07-21T00:07:17.403Z,22.06
2018-07-21T00:09:45.716Z,22.00
2018-07-21T00:12:14.078Z,21.97
2018-07-21T00:14:42.459Z,21.92
2018-07-21T00:17:10.809Z,21.91
2018-07-21T00:19:39.182Z,21.92
2018-07-21T00:22:07.781Z,21.92
2018-07-21T00:24:36.083Z,21.96
2018-07-21T00:27:04.429Z,21.99
2018-07-21T00:29:32.758Z,22.01
2018-07-21T00:32:01.075Z,22.02
2018-07-21T00:34:29.404Z,22.03
2018-07-21T00:36:57.690Z,22.02
2018-07-21T00:39:26.035Z,22.00
2018-07-21T00:41:54.401Z,22.00
2018-07-21T00:44:22.968Z,22.00
2018-07-21T00:46:51.291Z,21.98
2018-07-21T00:49:19.736Z,21.99
2018-07-21T00:51:48.036Z,21.98
2018-07-21T00:54:16.363Z,21.97
2018-07-21T00:56:44.778Z,21.93
2018-07-21T00:59:13.084Z,21.92
2018-07-21T01:01:41.474Z,21.92
2018-07-21T01:04:09.798Z,21.93
2018-07-21T01:06:38.153Z,21.94
2018-07-21T01:09:08.801Z,21.95
2018-07-21T01:11:37.141Z,21.92
2018-07-21T01:14:05.658Z,21.92
2018-07-21T01:16:34.016Z,21.91
2018-07-21T01:19:02.347Z,21.91
2018-07-21T01:21:30.706Z,21.93
2018-07-21T01:23:59.055Z,21.92
2018-07-21T01:26:27.371Z,21.89
2018-07-21T01:28:55.789Z,21.87
2018-07-21T01:31:24.133Z,21.86
2018-07-21T01:33:52.460Z,21.89
2018-07-21T01:36:20.773Z,21.90
2018-07-21T01:38:49.122Z,21.91
2018-07-21T01:41:17.465Z,21.91
2018-07-21T01:43:45.764Z,21.91
2018-07-21T01:46:14.101Z,21.90
2018-07-21T01:48:42.426Z,21.90
2018-07-21T01:51:10.862Z,21.87
2018-07-21T01:53:39.163Z,21.85
2018-07-21T01:56:07.505Z,21.85
2018-07-21T01:58:35.821Z,21.82
2018-07-21T02:01:04.253Z,21.79
2018-07-21T02:03:32.588Z,21.74
2018-07-21T02:06:00.958Z,21.67
2018-07-21T02:08:29.279Z,21.64
2018-07-21T02:10:57.632Z,21.62
2018-07-21T02:13:25.980Z,21.64
2018-07-21T02:15:54.280Z,21.62
2018-07-21T02:18:22.622Z,21.58
2018-07-21T02:20:50.935Z,21.55
2018-07-21T02:23:19.274Z,21.51
2018-07-21T02:25:47.626Z,21.49
2018-07-21T02:28:16.037Z,21.46
2018-07-21T02:30:44.351Z,21.47
2018-07-21T02:33:12.760Z,21.47
2018-07-21T02:35:41.164Z,21.45
2018-07-21T02:38:09.488Z,21.44
2018-07-21T02:40:37.794Z,21.42
2018-07-21T02:43:06.460Z,21.39
2018-07-21T02:45:34.857Z,21.38
2018-07-21T02:48:03.178Z,21.35
2018-07-21T02:50:31.549Z,21.31
2018-07-21T02:53:00.238Z,21.29
2018-07-21T02:55:29.314Z,21.22
2018-07-21T02:57:57.647Z,21.17
2018-07-21T03:00:26.107Z,21.13
2018-07-21T03:02:54.460Z,21.09
2018-07-21T03:05:22.838Z,21.09
2018-07-21T03:07:51.180Z,21.04
2018-07-21T03:10:19.481Z,21.01
2018-07-21T03:12:47.790Z,21.00
2018-07-21T03:15:16.140Z,20.97
2018-07-21T03:17:44.453Z,20.91
2018-07-21T03:20:12.800Z,20.82
2018-07-21T03:22:41.132Z,20.77
2018-07-21T03:25:09.545Z,20.71
2018-07-21T03:27:37.924Z,20.65
2018-07-21T03:30:06.303Z,20.58
2018-07-21T03:32:34.601Z,20.51
2018-07-21T03:35:02.945Z,20.46
2018-07-21T03:37:31.284Z,20.43
2018-07-21T03:39:59.734Z,20.40
2018-07-21T03:42:28.017Z,20.38
2018-07-21T03:44:56.395Z,20.39
2018-07-21T03:47:24.731Z,20.37
2018-07-21T03:49:53.217Z,20.35
2018-07-21T03:52:21.556Z,20.33
2018-07-21T03:54:49.908Z,20.28
2018-07-21T03:57:18.290Z,20.24
2018-07-21T03:59:46.575Z,20.23
2018-07-21T04:02:14.924Z,20.22
2018-07-21T04:04:43.296Z,20.22
2018-07-21T04:07:12.164Z,20.20
2018-07-21T04:09:40.495Z,20.17
2018-07-21T04:12:08.848Z,20.15
2018-07-21T04:14:37.246Z,20.16
2018-07-21T04:17:05.610Z,20.18
2018-07-21T04:19:33.984Z,20.25
2018-07-21T04:22:02.374Z,20.29
2018-07-21T04:24:30.706Z,20.31
2018-07-21T04:26:59.046Z,20.31
2018-07-21T04:29:27.376Z,20.32
2018-07-21T04:31:55.720Z,20.32
2018-07-21T04:34:24.075Z,20.29
2018-07-21T04:36:52.497Z,20.29
2018-07-21T04:39:20.890Z,20.24
2018-07-21T04:41:49.281Z,20.20
2018-07-21T04:44:17.605Z,20.15
2018-07-21T04:46:45.943Z,20.12
2018-07-21T04:49:14.246Z,20.11
2018-07-21T04:51:42.589Z,20.13
2018-07-21T04:54:10.943Z,20.13
2018-07-21T04:56:39.296Z,20.14
2018-07-21T04:59:07.611Z,20.12
2018-07-21T05:01:35.993Z,20.10
2018-07-21T05:04:04.390Z,20.12
2018-07-21T05:06:32.752Z,20.15
2018-07-21T05:09:01.099Z,20.44
2018-07-21T05:11:29.435Z,20.90
2018-07-21T05:13:57.834Z,21.09
2018-07-21T05:16:26.286Z,21.03
2018-07-21T05:18:55.316Z,20.94
2018-07-21T05:21:23.671Z,20.85
2018-07-21T05:23:51.999Z,20.80
2018-07-21T05:26:20.333Z,20.75
2018-07-21T05:28:48.959Z,20.70
2018-07-21T05:31:17.318Z,20.61
2018-07-21T05:33:45.645Z,20.56
2018-07-21T05:36:13.990Z,20.53
2018-07-21T05:38:42.350Z,20.53
2018-07-21T05:41:10.786Z,20.50
2018-07-21T05:43:39.123Z,20.48
2018-07-21T05:46:07.497Z,20.44
2018-07-21T05:48:36.060Z,20.44
2018-07-21T05:51:04.358Z,20.54
2018-07-21T05:53:32.735Z,20.65
2018-07-21T05:56:01.094Z,20.82
2018-07-21T05:58:29.435Z,21.05
2018-07-21T06:00:57.846Z,21.07
2018-07-21T06:03:26.320Z,21.00
2018-07-21T06:05:54.669Z,20.97
2018-07-21T06:08:22.992Z,21.00
2018-07-21T06:10:51.577Z,21.02
2018-07-21T06:13:19.901Z,21.04
2018-07-21T06:15:48.257Z,20.98
2018-07-21T06:18:16.625Z,20.90
2018-07-21T06:20:45.021Z,20.81
2018-07-21T06:23:13.361Z,20.71
2018-07-21T06:25:41.728Z,20.63
2018-07-21T06:28:10.137Z,20.58
2018-07-21T06:30:38.373Z,20.55
2018-07-21T06:33:06.857Z,20.53
2018-07-21T06:35:35.320Z,20.55
2018-07-21T06:38:03.608Z,20.60
2018-07-21T06:40:31.963Z,20.63
2018-07-21T06:43:00.300Z,20.73
2018-07-21T06:45:28.827Z,20.86
2018-07-21T06:47:57.212Z,21.04
2018-07-21T06:50:25.494Z,21.28
2018-07-21T06:52:53.828Z,21.58
2018-07-21T06:55:22.155Z,21.89
2018-07-21T06:57:50.547Z,22.09
2018-07-21T07:00:18.910Z,22.18
2018-07-21T07:02:47.531Z,22.21
2018-07-21T07:05:15.869Z,22.27
2018-07-21T07:07:44.201Z,22.32
2018-07-21T07:10:12.632Z,22.30
2018-07-21T07:12:40.959Z,22.30
2018-07-21T07:15:09.286Z,22.31
2018-07-21T07:17:37.584Z,22.34
2018-07-21T07:20:05.952Z,22.39
2018-07-21T07:22:34.253Z,22.41
2018-07-21T07:25:02.614Z,22.47
2018-07-21T07:27:31.033Z,22.55
2018-07-21T07:29:59.306Z,22.64
2018-07-21T07:32:27.759Z,22.68
2018-07-21T07:34:56.111Z,22.73
2018-07-21T07:37:24.437Z,22.82
2018-07-21T07:39:52.786Z,22.98
2018-07-21T07:42:21.122Z,23.19
2018-07-21T07:44:49.424Z,23.37
2018-07-21T07:47:17.751Z,23.50
2018-07-21T07:49:46.087Z,23.60
2018-07-21T07:52:14.480Z,23.66
2018-07-21T07:54:42.814Z,23.70
2018-07-21T07:57:11.213Z,23.75
2018-07-21T07:59:39.601Z,23.84
2018-07-21T08:02:07.947Z,23.89
2018-07-21T08:04:36.339Z,23.95
2018-07-21T08:07:04.679Z,23.98
2018-07-21T08:09:33.020Z,24.04
2018-07-21T08:12:01.354Z,24.10
2018-07-21T08:14:29.764Z,24.10
2018-07-21T08:16:58.079Z,24.12
2018-07-21T08:19:26.480Z,24.16
2018-07-21T08:21:54.834Z,24.15
2018-07-21T08:24:23.302Z,24.12
2018-07-21T08:26:51.719Z,24.10
2018-07-21T08:29:20.034Z,24.13
2018-07-21T08:31:48.423Z,24.18
2018-07-21T08:34:16.709Z,24.22
2018-07-21T08:36:45.204Z,24.27
2018-07-21T08:39:13.572Z,24.31
2018-07-21T08:41:41.953Z,24.34
2018-07-21T08:44:10.285Z,24.34
2018-07-21T08:46:38.601Z,24.37
2018-07-21T08:49:06.964Z,24.44
2018-07-21T08:51:35.339Z,24.60
2018-07-21T08:54:03.677Z,24.68
2018-07-21T08:56:32.294Z,24.87
2018-07-21T08:59:00.726Z,25.02
2018-07-21T09:01:29.097Z,25.07
2018-07-21T09:03:57.451Z,25.14
2018-07-21T09:06:25.831Z,25.20
2018-07-21T09:08:54.131Z,25.21
2018-07-21T09:11:22.494Z,25.24
2018-07-21T09:13:50.816Z,25.26
2018-07-21T09:16:19.214Z,25.26
2018-07-21T09:18:47.575Z,25.29
2018-07-21T09:21:16.014Z,25.31
2018-07-21T09:23:44.383Z,25.35
2018-07-21T09:26:12.739Z,25.33
2018-07-21T09:28:41.098Z,25.41
2018-07-21T09:31:09.383Z,25.57
2018-07-21T09:33:37.740Z,25.75
2018-07-21T09:36:06.115Z,25.87
2018-07-21T09:38:34.495Z,26.06
2018-07-21T09:41:02.912Z,26.18
2018-07-21T09:43:31.231Z,26.25
2018-07-21T09:45:59.811Z,26.26
2018-07-21T09:48:28.216Z,26.32
2018-07-21T09:50:56.589Z,26.45
2018-07-21T09:53:24.941Z,26.37
2018-07-21T09:55:53.326Z,26.33
2018-07-21T09:58:21.646Z,26.32
2018-07-21T10:00:55.120Z,26.44
2018-07-21T10:03:23.525Z,26.61
2018-07-21T10:05:51.862Z,26.78
2018-07-21T10:08:20.240Z,26.84
2018-07-21T10:10:48.595Z,26.88
2018-07-21T10:13:16.972Z,26.87
2018-07-21T10:15:45.420Z,26.83
2018-07-21T10:18:13.775Z,26.82
2018-07-21T10:20:42.111Z,26.81
2018-07-21T10:23:10.509Z,26.84
2018-07-21T10:25:45.028Z,26.90
2018-07-21T10:28:18.791Z,26.96
2018-07-21T10:30:47.113Z,26.99
2018-07-21T10:33:15.472Z,27.11
2018-07-21T10:35:43.856Z,27.23
2018-07-21T10:38:12.202Z,27.39
2018-07-21T10:40:40.567Z,27.49
2018-07-21T10:43:08.876Z,27.56
2018-07-21T10:45:37.226Z,27.67
2018-07-21T10:48:05.557Z,27.84
2018-07-21T10:50:33.976Z,27.96
2018-07-21T10:53:02.277Z,27.91
2018-07-21T10:55:30.612Z,27.83
2018-07-21T10:57:58.958Z,27.73
2018-07-21T11:00:27.309Z,27.74
2018-07-21T11:02:55.672Z,27.76
2018-07-21T11:05:23.964Z,27.64
2018-07-21T11:07:52.399Z,27.53
2018-07-21T11:10:20.730Z,27.51
2018-07-21T11:12:49.035Z,27.50
2018-07-21T11:15:17.498Z,27.60
2018-07-21T11:17:45.784Z,27.72
2018-07-21T11:20:14.279Z,27.75
2018-07-21T11:22:42.580Z,27.69
2018-07-21T11:25:10.901Z,27.57
2018-07-21T11:27:39.241Z,27.46
2018-07-21T11:30:08.173Z,27.47
2018-07-21T11:32:36.482Z,27.53
2018-07-21T11:35:05.099Z,27.58
2018-07-21T11:37:33.440Z,27.62
2018-07-21T11:40:01.747Z,27.62
2018-07-21T11:42:30.092Z,27.57
2018-07-21T11:44:58.428Z,27.49
2018-07-21T11:47:27.067Z,27.42
2018-07-21T11:49:55.417Z,27.41
2018-07-21T11:52:24.172Z,27.46
2018-07-21T11:54:52.533Z,27.58
2018-07-21T11:57:20.849Z,27.64
2018-07-21T11:59:49.203Z,27.72
2018-07-21T12:02:17.559Z,27.75
2018-07-21T12:04:45.855Z,27.77
2018-07-21T12:07:14.224Z,27.84
2018-07-21T12:09:42.545Z,27.87
2018-07-21T12:12:10.947Z,27.86
2018-07-21T12:14:39.268Z,27.81
2018-07-21T12:17:07.585Z,27.80
2018-07-21T12:19:35.888Z,27.77
2018-07-21T12:22:04.256Z,27.81
2018-07-21T12:24:32.590Z,27.94
2018-07-21T12:27:01.028Z,28.08
2018-07-21T12:29:29.351Z,28.18
2018-07-21T12:31:57.867Z,28.28
2018-07-21T12:34:26.295Z,28.39
2018-07-21T12:36:54.610Z,28.50
2018-07-21T12:39:22.928Z,28.56
2018-07-21T12:41:51.264Z,28.55
2018-07-21T12:44:19.673Z,28.59
2018-07-21T12:46:48.017Z,28.60
2018-07-21T12:49:16.404Z,28.64
2018-07-21T12:51:44.723Z,28.73
2018-07-21T12:54:13.072Z,28.86
2018-07-21T12:56:41.379Z,28.98
2018-07-21T12:59:09.785Z,28.98
2018-07-21T13:01:38.118Z,28.99
2018-07-21T13:04:06.479Z,28.95
2018-07-21T13:06:34.770Z,29.04
2018-07-21T13:09:03.207Z,29.08
2018-07-21T13:11:31.524Z,29.11
2018-07-21T13:13:59.864Z,29.26
2018-07-21T13:16:28.312Z,29.45
2018-07-21T13:18:56.784Z,29.64
2018-07-21T13:21:25.120Z,29.81
2018-07-21T13:23:53.701Z,29.93
2018-07-21T13:26:22.057Z,30.09
2018-07-21T13:28:50.382Z,30.13
2018-07-21T13:31:18.900Z,30.07
2018-07-21T13:33:47.387Z,29.92
2018-07-21T13:36:15.686Z,29.78
2018-07-21T13:38:43.990Z,29.72
2018-07-21T13:41:12.302Z,29.71
2018-07-21T13:43:40.704Z,29.67
2018-07-21T13:46:09.052Z,29.69
2018-07-21T13:48:37.381Z,29.76
2018-07-21T13:51:05.746Z,29.86
2018-07-21T13:53:34.108Z,29.73
2018-07-21T13:56:02.508Z,29.60
2018-07-21T13:58:31.000Z,29.47
2018-07-21T14:00:59.380Z,29.38
2018-07-21T14:03:27.738Z,29.24
2018-07-21T14:05:56.096Z,29.10
2018-07-21T14:08:24.411Z,29.00
2018-07-21T14:10:52.778Z,28.91
2018-07-21T14:13:21.237Z,28.86
2018-07-21T14:15:49.569Z,28.82
2018-07-21T14:18:17.984Z,28.75
2018-07-21T14:20:47.135Z,28.63
2018-07-21T14:23:15.466Z,28.47
2018-07-21T14:25:43.884Z,28.39
2018-07-21T14:28:12.312Z,28.29
2018-07-21T14:30:40.683Z,28.15
2018-07-21T14:33:08.990Z,28.03
2018-07-21T14:35:37.322Z,27.88
2018-07-21T14:38:06.112Z,27.68
2018-07-21T14:40:34.479Z,27.42
2018-07-21T14:43:02.831Z,27.12
2018-07-21T14:45:31.147Z,26.60
2018-07-21T14:47:59.461Z,25.80
2018-07-21T14:50:27.790Z,25.13
2018-07-21T14:52:56.160Z,25.04
2018-07-21T14:55:24.598Z,24.85
2018-07-21T14:57:52.911Z,24.30
2018-07-21T15:00:21.556Z,22.76
2018-07-21T15:02:49.900Z,21.66
2018-07-21T15:05:18.257Z,21.19
2018-07-21T15:07:46.640Z,21.05
2018-07-21T15:10:14.977Z,20.74
2018-07-21T15:12:43.731Z,20.57
2018-07-21T15:15:12.060Z,20.70
2018-07-21T15:17:40.535Z,20.80
2018-07-21T15:20:08.813Z,20.66
2018-07-21T15:22:37.192Z,20.39
2018-07-21T15:25:05.558Z,20.22
2018-07-21T15:27:33.925Z,20.13
2018-07-21T15:30:02.295Z,20.17
2018-07-21T15:32:30.606Z,20.32
2018-07-21T15:34:58.967Z,20.48
2018-07-21T15:37:27.275Z,20.62
2018-07-21T15:39:55.748Z,20.70
2018-07-21T15:42:23.980Z,20.74
2018-07-21T15:44:52.317Z,20.70
2018-07-21T15:47:20.612Z,20.66
2018-07-21T15:49:49.395Z,20.55
2018-07-21T15:52:17.716Z,20.50
2018-07-21T15:54:46.106Z,20.40
2018-07-21T15:57:14.933Z,20.33
2018-07-21T15:59:43.273Z,20.26
2018-07-21T16:02:11.577Z,20.25
2018-07-21T16:04:39.888Z,20.22
2018-07-21T16:07:08.287Z,20.23
2018-07-21T16:09:36.661Z,20.23
2018-07-21T16:12:05.033Z,20.26
2018-07-21T16:14:33.348Z,20.24
2018-07-21T16:17:01.695Z,20.25
2018-07-21T16:19:30.088Z,20.27
2018-07-21T16:21:58.568Z,20.26
2018-07-21T16:24:26.952Z,20.27
2018-07-21T16:26:55.375Z,20.33
2018-07-21T16:29:23.685Z,20.36
2018-07-21T16:31:51.984Z,20.37
2018-07-21T16:34:20.335Z,20.35
2018-07-21T16:36:48.858Z,20.33
2018-07-21T16:39:17.188Z,20.36
2018-07-21T16:41:45.536Z,20.40
2018-07-21T16:44:13.859Z,20.40
2018-07-21T16:46:42.203Z,20.41
2018-07-21T16:49:10.617Z,20.43
2018-07-21T16:51:38.975Z,20.40
2018-07-21T16:54:07.323Z,20.35
2018-07-21T16:56:35.680Z,20.38
2018-07-21T16:59:04.067Z,20.42
2018-07-21T17:01:32.469Z,20.44
2018-07-21T17:04:00.812Z,20.45
2018-07-21T17:06:29.121Z,20.52
2018-07-21T17:08:57.959Z,20.56
2018-07-21T17:11:26.393Z,20.50
2018-07-21T17:13:54.755Z,20.47
2018-07-21T17:16:23.153Z,20.47
2018-07-21T17:18:51.495Z,20.54
2018-07-21T17:21:19.869Z,20.62
2018-07-21T17:23:48.268Z,20.72
2018-07-21T17:26:16.585Z,20.80
2018-07-21T17:28:45.023Z,20.90
2018-07-21T17:31:13.354Z,20.99
2018-07-21T17:33:41.750Z,21.01
2018-07-21T17:36:10.115Z,21.08
2018-07-21T17:38:38.465Z,21.09
2018-07-21T17:41:06.765Z,21.12
2018-07-21T17:43:35.116Z,21.19
2018-07-21T17:46:03.441Z,21.25
2018-07-21T17:48:31.755Z,21.31
2018-07-21T17:51:00.120Z,21.40
2018-07-21T17:53:28.428Z,21.47
2018-07-21T17:55:56.820Z,21.54
2018-07-21T17:58:25.150Z,21.59
2018-07-21T18:00:53.473Z,21.64
2018-07-21T18:03:21.800Z,21.66
2018-07-21T18:05:50.368Z,21.69
2018-07-21T18:08:18.696Z,21.71
2018-07-21T18:10:46.985Z,21.71
2018-07-21T18:13:15.339Z,21.70
2018-07-21T18:15:43.656Z,21.67
2018-07-21T18:18:12.342Z,21.64
2018-07-21T18:20:40.734Z,21.63
2018-07-21T18:23:09.092Z,21.62
2018-07-21T18:25:37.622Z,21.62
2018-07-21T18:28:06.051Z,21.61
2018-07-21T18:30:34.397Z,21.61
2018-07-21T18:33:09.107Z,21.59
2018-07-21T18:35:37.590Z,21.56
2018-07-21T18:38:06.057Z,21.53
2018-07-21T18:40:34.422Z,21.49
2018-07-21T18:43:02.773Z,21.43
2018-07-21T18:45:31.178Z,21.36
2018-07-21T18:47:59.543Z,21.31
2018-07-21T18:50:27.959Z,21.29
2018-07-21T18:52:56.309Z,21.27
2018-07-21T18:55:24.707Z,21.23
2018-07-21T18:57:53.225Z,21.20
2018-07-21T19:00:21.612Z,21.16
2018-07-21T19:02:50.032Z,21.11
2018-07-21T19:05:18.460Z,21.09
2018-07-21T19:07:47.626Z,21.06
2018-07-21T19:10:16.534Z,21.03
2018-07-21T19:12:47.753Z,21.01
2018-07-21T19:15:21.587Z,20.99
2018-07-21T19:17:50.111Z,20.96
2018-07-21T19:20:23.665Z,20.94
2018-07-21T19:22:52.140Z,20.94
2018-07-21T19:25:25.683Z,20.93
2018-07-21T19:27:54.088Z,20.91
2018-07-21T19:30:22.442Z,20.90
2018-07-21T19:32:56.215Z,20.89
2018-07-21T19:35:24.572Z,20.91
2018-07-21T19:37:52.970Z,20.93
2018-07-21T19:40:21.337Z,20.91
2018-07-21T19:42:49.826Z,20.89
2018-07-21T19:45:18.180Z,20.88
2018-07-21T19:47:46.654Z,20.86
2018-07-21T19:50:14.915Z,20.85
2018-07-21T19:52:43.369Z,20.81
2018-07-21T19:55:11.970Z,20.79
2018-07-21T19:57:40.348Z,20.75
2018-07-21T20:00:08.802Z,20.74
2018-07-21T20:02:37.155Z,20.74
2018-07-21T20:05:05.707Z,20.73
2018-07-21T20:07:34.754Z,20.70
2018-07-21T20:10:03.072Z,20.64
2018-07-21T20:12:31.409Z,20.61
2018-07-21T20:14:59.784Z,20.57
2018-07-21T20:17:28.141Z,20.55
2018-07-21T20:19:56.466Z,20.53
2018-07-21T20:22:24.850Z,20.51
2018-07-21T20:24:53.221Z,20.49
2018-07-21T20:27:21.548Z,20.43
2018-07-21T20:29:50.102Z,20.39
2018-07-21T20:32:18.453Z,20.37
2018-07-21T20:34:46.880Z,20.33
2018-07-21T20:37:15.169Z,20.33
2018-07-21T20:39:43.613Z,20.32
2018-07-21T20:42:11.973Z,20.27
2018-07-21T20:44:40.370Z,20.23
2018-07-21T20:47:08.708Z,20.23
2018-07-21T20:49:37.185Z,20.22
2018-07-21T20:52:05.523Z,20.23
2018-07-21T20:54:34.060Z,20.24
2018-07-21T20:57:02.415Z,20.24
2018-07-21T20:59:30.721Z,20.23
2018-07-21T21:01:59.077Z,20.21
2018-07-21T21:04:27.466Z,20.17
2018-07-21T21:06:55.814Z,20.14
2018-07-21T21:09:24.204Z,20.13
2018-07-21T21:11:52.581Z,20.12
2018-07-21T21:14:20.992Z,20.12
2018-07-21T21:16:49.293Z,20.08
2018-07-21T21:19:17.658Z,20.05
2018-07-21T21:21:45.976Z,19.99
2018-07-21T21:24:14.320Z,19.96
2018-07-21T21:26:42.612Z,19.96
2018-07-21T21:29:10.918Z,19.98
2018-07-21T21:31:39.283Z,20.00
2018-07-21T21:34:07.627Z,19.99
2018-07-21T21:36:35.972Z,19.98
2018-07-21T21:39:06.665Z,19.96
2018-07-21T21:41:34.967Z,19.93
2018-07-21T21:44:03.442Z,19.90
2018-07-21T21:46:31.755Z,19.87
2018-07-21T21:49:00.051Z,19.85
2018-07-21T21:51:28.413Z,19.82
2018-07-21T21:53:57.053Z,19.84
2018-07-21T21:56:25.554Z,19.84
2018-07-21T21:58:53.955Z,19.85
2018-07-21T22:01:22.235Z,19.86
2018-07-21T22:03:50.559Z,19.86
2018-07-21T22:06:19.000Z,19.85
2018-07-21T22:08:47.370Z,19.85
2018-07-21T22:11:15.733Z,19.83
2018-07-21T22:13:44.026Z,19.81
2018-07-21T22:16:12.442Z,19.80
2018-07-21T22:18:40.777Z,19.79
2018-07-21T22:21:09.164Z,19.77
2018-07-21T22:23:37.490Z,19.75
2018-07-21T22:26:05.846Z,19.77
2018-07-21T22:28:34.163Z,19.78
2018-07-21T22:31:02.504Z,19.80
2018-07-21T22:33:30.837Z,19.87
2018-07-21T22:35:59.268Z,19.91
2018-07-21T22:38:27.575Z,19.93
2018-07-21T22:40:55.879Z,19.94
2018-07-21T22:43:24.239Z,19.93
2018-07-21T22:45:52.576Z,19.88
2018-07-21T22:48:20.903Z,19.84
2018-07-21T22:50:49.226Z,19.79
2018-07-21T22:53:17.560Z,19.76
2018-07-21T22:55:45.867Z,19.75
2018-07-21T22:58:14.220Z,19.73
2018-07-21T23:00:42.638Z,19.73
2018-07-21T23:03:10.983Z,19.75
2018-07-21T23:05:39.297Z,19.72
2018-07-21T23:08:07.662Z,19.70
2018-07-21T23:10:35.965Z,19.68
2018-07-21T23:13:04.450Z,19.66
2018-07-21T23:15:32.728Z,19.63
2018-07-21T23:18:01.077Z,19.61
2018-07-21T23:20:29.422Z,19.59
2018-07-21T23:22:57.739Z,19.56
2018-07-21T23:25:26.096Z,19.51
2018-07-21T23:27:54.485Z,19.49
2018-07-21T23:30:22.885Z,19.44
2018-07-21T23:32:51.187Z,19.40
2018-07-21T23:35:19.547Z,19.38
2018-07-21T23:37:47.852Z,19.36
2018-07-21T23:40:16.240Z,19.34
2018-07-21T23:42:44.599Z,19.34
2018-07-21T23:45:12.945Z,19.32
2018-07-21T23:47:41.255Z,19.29
2018-07-21T23:50:09.777Z,19.25
2018-07-21T23:52:38.107Z,19.23
2018-07-21T23:55:07.531Z,19.20
2018-07-21T23:57:35.864Z,19.19
